createdAt,value
2022-08-03T00:04:17.520Z,0.00
2022-08-03T00:09:49.184Z,1.00
2022-08-03T00:12:01.520Z,0.00
2022-08-03T00:17:53.386Z,0.00
2022-08-03T00:23:05.341Z,0.00
2022-08-03T00:28:36.968Z,0.00
2022-08-03T00:34:08.788Z,1.00
2022-08-03T00:45:09.532Z,0.00
2022-08-03T00:50:41.302Z,1.00
2022-08-03T00:56:13.392Z,0.00
2022-08-03T03:02:33.429Z,2.00
2022-08-03T03:08:05.202Z,3.00
2022-08-03T03:13:36.949Z,7.00
2022-08-03T03:19:08.834Z,16.00
2022-08-03T03:24:40.557Z,39.00
2022-08-03T03:30:12.419Z,76.00
2022-08-03T03:35:44.443Z,165.00
2022-08-03T03:41:16.716Z,309.00
2022-08-03T03:46:48.590Z,492.00
2022-08-03T03:52:20.307Z,792.00
2022-08-03T03:57:52.264Z,1218.00
2022-08-03T04:03:23.932Z,1747.00
2022-08-03T04:08:56.151Z,6359.00
2022-08-03T04:14:27.958Z,23531.00
2022-08-03T04:19:59.596Z,30786.00
2022-08-03T04:25:31.397Z,37182.00
2022-08-03T04:31:03.308Z,37889.00
2022-08-03T04:36:35.326Z,37889.00
2022-08-03T04:42:08.720Z,37889.00
2022-08-03T04:47:39.162Z,37889.00
2022-08-03T04:53:10.814Z,37889.00
2022-08-03T04:58:42.856Z,37889.00
2022-08-03T05:04:14.987Z,6955.00
2022-08-03T05:09:50.659Z,5968.00
2022-08-03T05:15:18.466Z,5635.00
2022-08-03T05:20:50.181Z,5571.00
2022-08-03T05:26:22.015Z,5654.00
2022-08-03T05:31:53.683Z,5868.00
2022-08-03T05:37:25.383Z,6147.00
2022-08-03T05:42:57.150Z,27185.00
2022-08-03T05:48:28.756Z,37889.00
2022-08-03T05:54:00.818Z,37889.00
2022-08-03T05:59:39.478Z,37889.00
2022-08-03T06:05:04.411Z,37889.00
2022-08-03T06:10:38.264Z,37889.00
2022-08-03T06:16:07.960Z,37889.00
2022-08-03T06:21:39.885Z,37889.00
2022-08-03T06:27:11.586Z,37889.00
2022-08-03T06:32:43.664Z,37889.00
2022-08-03T06:38:15.764Z,37889.00
2022-08-03T06:44:03.305Z,37889.00
2022-08-03T06:49:19.200Z,37889.00
2022-08-03T06:54:51.111Z,37889.00
2022-08-03T07:00:23.483Z,37889.00
2022-08-03T07:05:55.644Z,37889.00
2022-08-03T07:11:27.446Z,37889.00
2022-08-03T07:16:59.276Z,37889.00
2022-08-03T07:22:31.364Z,37889.00
2022-08-03T07:28:03.471Z,37889.00
2022-08-03T07:33:35.563Z,37889.00
2022-08-03T07:39:15.934Z,37889.00
2022-08-03T07:44:39.837Z,37889.00
2022-08-03T07:50:12.051Z,37889.00
2022-08-03T07:55:43.723Z,37889.00
2022-08-03T08:01:15.455Z,37889.00
2022-08-03T08:12:17.245Z,37889.00
2022-08-03T08:17:49.070Z,37889.00
2022-08-03T08:23:29.857Z,37889.00
2022-08-03T08:28:52.294Z,37889.00
2022-08-03T08:34:23.407Z,37889.00
2022-08-03T08:39:54.778Z,37889.00
2022-08-03T08:45:26.393Z,37889.00
2022-08-03T08:50:58.169Z,37889.00
2022-08-03T08:56:30.256Z,37889.00
2022-08-03T09:02:01.914Z,37889.00
2022-08-03T09:07:33.916Z,37889.00
2022-08-03T09:13:05.356Z,37889.00
2022-08-03T09:18:36.668Z,37889.00
2022-08-03T09:24:16.467Z,37889.00
2022-08-03T09:29:41.009Z,14477.00
2022-08-03T09:35:12.958Z,13207.00
2022-08-03T09:40:44.797Z,12695.00
2022-08-03T09:48:29.643Z,12630.00
2022-08-03T09:54:01.470Z,12451.00
2022-08-03T09:59:32.866Z,12283.00
2022-08-03T10:05:04.476Z,12253.00
2022-08-03T10:10:36.234Z,12288.00
2022-08-03T10:16:22.329Z,12133.00
2022-08-03T10:21:40.085Z,12092.00
2022-08-03T10:27:11.908Z,11811.00
2022-08-03T10:32:43.629Z,11823.00
2022-08-03T10:38:15.123Z,11792.00
2022-08-03T10:43:46.596Z,11519.00
2022-08-03T10:49:33.658Z,11437.00
2022-08-03T10:54:50.469Z,11455.00
2022-08-03T11:00:22.438Z,11352.00
2022-08-03T11:05:54.149Z,11286.00
2022-08-03T11:11:25.661Z,11304.00
2022-08-03T11:16:57.544Z,11251.00
2022-08-03T11:22:29.455Z,11155.00
2022-08-03T11:28:01.134Z,11085.00
2022-08-03T11:33:32.622Z,11064.00
2022-08-03T11:39:04.853Z,11063.00
2022-08-03T11:44:36.956Z,11024.00
2022-08-03T11:50:08.721Z,11037.00
2022-08-03T11:55:40.398Z,11026.00
2022-08-03T12:01:12.141Z,10889.00
2022-08-03T12:06:47.261Z,10962.00
2022-08-03T12:12:15.829Z,10940.00
2022-08-03T12:17:47.575Z,10765.00
2022-08-03T12:23:19.071Z,10874.00
2022-08-03T12:28:50.287Z,10813.00
2022-08-03T12:34:21.757Z,10786.00
2022-08-03T12:40:02.938Z,10729.00
2022-08-03T12:45:25.633Z,10615.00
2022-08-03T12:50:57.487Z,10673.00
2022-08-03T12:56:29.137Z,10643.00
2022-08-03T13:02:01.052Z,10605.00
2022-08-03T13:07:32.722Z,10581.00
2022-08-03T13:13:04.365Z,10606.00
2022-08-03T13:18:35.988Z,10594.00
2022-08-03T13:24:07.551Z,10552.00
2022-08-03T13:29:39.256Z,10559.00
2022-08-03T13:35:11.349Z,10583.00
2022-08-03T13:40:42.874Z,10619.00
2022-08-03T13:46:14.676Z,10621.00
2022-08-03T13:51:46.487Z,10618.00
2022-08-03T13:58:18.974Z,10658.00
2022-08-03T14:02:50.816Z,10661.00
2022-08-03T14:08:22.633Z,10648.00
2022-08-03T14:13:54.222Z,10644.00
2022-08-03T14:19:26.135Z,10594.00
2022-08-03T14:24:57.467Z,10465.00
2022-08-03T14:30:28.950Z,10947.00
2022-08-03T14:36:00.810Z,10881.00
2022-08-03T14:41:32.687Z,10648.00
2022-08-03T14:47:04.642Z,10695.00
2022-08-03T14:52:36.290Z,10606.00
2022-08-03T14:58:20.650Z,10592.00
2022-08-03T15:03:39.864Z,10490.00
2022-08-03T15:14:44.449Z,10466.00
2022-08-03T15:26:04.113Z,10344.00
2022-08-03T15:31:19.384Z,10245.00
2022-08-03T15:42:22.893Z,9981.00
2022-08-03T15:47:54.034Z,9865.00
2022-08-03T15:53:25.502Z,9636.00
2022-08-03T15:59:03.157Z,9463.00
2022-08-03T16:04:28.335Z,9294.00
2022-08-03T16:10:00.135Z,9075.00
2022-08-03T16:15:31.853Z,8890.00
2022-08-03T16:21:03.064Z,8688.00
2022-08-03T16:26:34.943Z,8527.00
2022-08-03T16:32:09.153Z,8351.00
2022-08-03T16:37:39.185Z,8157.00
2022-08-03T16:43:09.417Z,7885.00
2022-08-03T16:54:14.088Z,7341.00
2022-08-03T16:59:44.863Z,7023.00
2022-08-03T17:05:16.419Z,6787.00
2022-08-03T17:10:48.068Z,6529.00
2022-08-03T17:16:19.871Z,6283.00
2022-08-03T17:21:51.638Z,6016.00
2022-08-03T17:28:51.302Z,5671.00
2022-08-03T17:32:57.430Z,5341.00
2022-08-03T17:38:25.918Z,5028.00
2022-08-03T17:44:15.809Z,4694.00
2022-08-03T17:49:29.191Z,4372.00
2022-08-03T17:55:55.830Z,4042.00
2022-08-03T18:00:32.770Z,3693.00
2022-08-03T18:06:10.987Z,3336.00
2022-08-03T18:11:38.862Z,2981.00
2022-08-03T18:17:10.228Z,2628.00
2022-08-03T18:22:39.902Z,2248.00
2022-08-03T18:28:11.655Z,1842.00
2022-08-03T18:34:16.351Z,1449.00
2022-08-03T18:39:14.849Z,1076.00
2022-08-03T18:44:54.204Z,802.00
2022-08-03T18:50:19.022Z,550.00
2022-08-03T18:56:01.333Z,332.00
2022-08-03T19:02:00.610Z,179.00
2022-08-03T19:06:52.500Z,68.00
2022-08-03T19:12:32.420Z,29.00
2022-08-03T19:17:55.940Z,11.00
2022-08-03T19:23:30.818Z,5.00
2022-08-03T19:28:58.931Z,2.00
2022-08-03T19:34:30.402Z,2.00
2022-08-03T19:40:02.356Z,1.00
2022-08-03T19:46:05.152Z,1.00
2022-08-03T19:51:12.099Z,0.00
2022-08-03T19:58:57.588Z,1.00
2022-08-03T20:04:29.988Z,0.00
2022-08-03T20:10:01.825Z,1.00
2022-08-03T20:15:32.956Z,1.00
2022-08-03T20:21:04.225Z,1.00
2022-08-03T20:26:35.703Z,1.00
2022-08-03T20:32:07.184Z,0.00
2022-08-03T20:37:38.801Z,0.00
2022-08-03T20:43:10.759Z,0.00
2022-08-03T20:48:42.174Z,0.00
2022-08-03T20:54:22.941Z,0.00
2022-08-03T20:59:47.066Z,0.00
2022-08-03T21:05:16.124Z,0.00
2022-08-03T21:10:47.654Z,0.00
2022-08-03T21:16:19.494Z,0.00
2022-08-03T21:21:51.106Z,1.00
2022-08-03T21:27:23.036Z,1.00
2022-08-03T21:32:55.673Z,1.00
2022-08-03T21:38:29.814Z,0.00
2022-08-03T21:43:59.612Z,0.00
2022-08-03T21:50:05.214Z,0.00
2022-08-03T21:55:03.628Z,0.00
2022-08-03T22:00:35.491Z,1.00
2022-08-03T22:06:07.086Z,0.00
2022-08-03T22:11:38.835Z,0.00
2022-08-03T22:17:10.770Z,0.00
2022-08-03T22:22:42.460Z,0.00
2022-08-03T22:28:14.264Z,0.00
2022-08-03T22:33:45.876Z,0.00
2022-08-03T22:39:25.486Z,0.00
2022-08-03T22:44:49.404Z,0.00
2022-08-03T22:50:31.234Z,0.00
2022-08-03T22:55:53.071Z,1.00
2022-08-03T23:01:24.924Z,0.00
2022-08-03T23:06:56.927Z,0.00
2022-08-03T23:12:28.524Z,0.00
2022-08-03T23:18:00.404Z,0.00
2022-08-03T23:23:44.447Z,0.00
2022-08-03T23:29:03.961Z,0.00
2022-08-03T23:40:05.159Z,0.00
2022-08-03T23:47:57.684Z,0.00
2022-08-03T23:53:28.987Z,0.00
2022-08-03T23:59:00.954Z,0.00
